Time;durP1;ratioP1;P1;durP2;ratioP2;P2;SDS_P1;SDS_P2;PMS_P1;PMS_P2;Temp;Humidity;BMP_temperature;BMP_pressure;BME280_temperature;BME280_humidity;BME280_pressure;Samples;Min_cycle;Max_cycle;Signal;HPM_P1;HPM_P2
2022/08/13 00:01:37;;;;;;;5.35;1.77;;;;;;;20.11;55.28;101150.94;5068980;28;20052;-43
2022/08/13 00:04:11;;;;;;;2.65;1.63;;;;;;;20.09;55.59;101156.16;5069146;28;20079;-43
2022/08/13 00:09:22;;;;;;;6.35;1.48;;;;;;;20.11;55.56;101152.94;5069585;28;20055;-44
2022/08/13 00:15:12;;;;;;;1.48;1.38;;;;;;;20.09;55.89;101158.97;5070224;28;20076;-41
2022/08/13 00:17:43;;;;;;;3.60;1.38;;;;;;;20.05;56.06;101156.16;5069309;28;20032;-46
2022/08/13 00:20:51;;;;;;;2.78;1.60;;;;;;;20.02;56.26;101156.94;5068999;28;20479;-46
2022/08/13 00:23:26;;;;;;;4.22;1.73;;;;;;;20.03;56.17;101149.31;5068978;28;20359;-42
2022/08/13 00:26:14;;;;;;;4.20;1.48;;;;;;;20.01;56.27;101148.91;5068646;28;20055;-42
2022/08/13 00:28:56;;;;;;;1.77;1.48;;;;;;;19.99;56.29;101143.69;5069046;28;20048;-46
2022/08/13 00:31:24;;;;;;;4.70;1.50;;;;;;;19.99;56.25;101137.25;5069276;28;20041;-41
2022/08/13 00:33:51;;;;;;;4.50;2.03;;;;;;;19.97;56.40;101145.28;5069237;28;20076;-46
2022/08/13 00:36:21;;;;;;;5.20;1.65;;;;;;;19.92;56.75;101140.06;5068837;28;20040;-41
2022/08/13 00:39:06;;;;;;;3.63;2.17;;;;;;;19.88;56.72;101131.59;5069249;28;20052;-43
2022/08/13 00:41:39;;;;;;;4.10;1.98;;;;;;;19.83;56.75;101134.81;5050589;28;20106;-44
2022/08/13 00:44:28;;;;;;;3.35;2.20;;;;;;;19.80;57.09;101135.59;5057446;28;20037;-44
2022/08/13 00:48:42;;;;;;;3.10;1.67;;;;;;;19.75;57.08;101130.38;5068674;28;20044;-41
2022/08/13 00:49:47;;;;;;;5.25;2.15;;;;;;;19.69;57.40;101129.19;5059002;28;20167;-43
2022/08/13 00:52:38;;;;;;;3.00;2.00;;;;;;;19.68;57.38;101127.56;5068835;28;20036;-44
2022/08/13 00:55:08;;;;;;;5.75;2.00;;;;;;;19.65;57.32;101122.75;5068871;28;20393;-43
2022/08/13 00:57:38;;;;;;;5.68;2.25;;;;;;;19.63;57.46;101125.16;5068862;28;20450;-43
2022/08/13 01:00:13;;;;;;;3.50;1.80;;;;;;;19.59;57.63;101118.72;5034032;28;20048;-41
2022/08/13 01:02:41;;;;;;;2.72;1.63;;;;;;;19.56;57.74;101127.16;5068139;28;20494;-45
2022/08/13 01:05:21;;;;;;;3.17;2.00;;;;;;;19.54;58.21;101121.13;5068713;28;20449;-44
2022/08/13 01:07:48;;;;;;;3.58;2.05;;;;;;;19.54;57.95;101124.72;5068701;28;20048;-41
2022/08/13 01:10:24;;;;;;;4.90;1.73;;;;;;;19.50;57.92;101129.53;5068486;28;20105;-46
2022/08/13 01:12:55;;;;;;;3.28;1.90;;;;;;;19.45;58.08;101121.50;5068272;28;20559;-44
2022/08/13 01:15:23;;;;;;;2.90;1.90;;;;;;;19.44;58.34;101123.50;5068386;28;20078;-46
2022/08/13 01:17:53;;;;;;;2.70;1.58;;;;;;;19.40;58.41;101130.31;5068291;28;20413;-42
2022/08/13 01:20:26;;;;;;;2.00;1.75;;;;;;;19.35;58.49;101133.47;5068264;28;20044;-41
2022/08/13 01:23:02;;;;;;;3.88;1.58;;;;;;;19.31;58.56;101125.03;5069006;28;20059;-43
2022/08/13 01:25:30;;;;;;;4.40;2.53;;;;;;;19.34;58.58;101129.03;5068509;28;20049;-43
2022/08/13 01:28:18;;;;;;;3.63;1.63;;;;;;;19.31;58.80;101129.81;5068108;28;20040;-45
2022/08/13 01:30:46;;;;;;;5.50;1.70;;;;;;;19.27;58.81;101118.56;5068079;28;20046;-43
2022/08/13 01:33:17;;;;;;;3.95;1.58;;;;;;;19.27;58.97;101124.19;5068195;28;20136;-42
2022/08/13 01:35:46;;;;;;;7.00;2.53;;;;;;;19.28;58.90;101113.75;5068361;28;20505;-43
2022/08/13 01:38:15;;;;;;;3.70;1.88;;;;;;;19.27;59.00;101118.56;5068819;28;20437;-42
2022/08/13 01:40:49;;;;;;;2.92;1.65;;;;;;;19.25;59.12;101118.16;5068463;28;20106;-43
2022/08/13 01:43:20;;;;;;;4.63;1.90;;;;;;;19.25;59.12;101103.31;5067932;28;20049;-44
2022/08/13 01:45:51;;;;;;;3.90;1.85;;;;;;;19.22;59.12;101107.72;5068441;28;20139;-44
2022/08/13 01:51:28;;;;;;;2.00;1.63;;;;;;;19.18;59.51;101097.69;5072217;28;20376;-41
2022/08/13 01:54:06;;;;;;;2.28;1.45;;;;;;;19.15;59.38;101104.91;5072119;28;20029;-43
2022/08/13 01:56:53;;;;;;;1.48;1.38;;;;;;;19.13;59.39;101095.25;5072515;28;20072;-42
2022/08/13 01:59:20;;;;;;;2.00;1.75;;;;;;;19.14;59.40;101092.06;5071712;28;20064;-46
2022/08/13 02:01:50;;;;;;;2.05;1.67;;;;;;;19.12;59.53;101088.03;5071403;28;20491;-48
2022/08/13 02:04:19;;;;;;;4.88;2.08;;;;;;;19.15;59.64;101092.88;5071497;28;20041;-43
2022/08/13 02:06:52;;;;;;;5.68;1.85;;;;;;;19.14;59.28;101094.09;5054451;28;20048;-45
2022/08/13 02:09:26;;;;;;;2.63;1.65;;;;;;;19.09;59.62;101092.44;5071780;28;20040;-48
2022/08/13 02:12:14;;;;;;;6.07;1.92;;;;;;;19.09;59.82;101089.63;5071878;28;20052;-46
2022/08/13 02:15:04;;;;;;;4.40;1.85;;;;;;;19.06;59.82;101089.63;5071686;28;20037;-46
2022/08/13 02:17:40;;;;;;;;;;;;;;;19.01;59.56;101087.22;5072101;28;20048;-42
2022/08/13 02:20:28;;;;;;;4.20;1.73;;;;;;;18.99;59.73;101084.78;5071608;28;19931;-45
2022/08/13 02:22:54;;;;;;;5.18;1.80;;;;;;;18.96;59.67;101084.75;5070983;28;20147;-47
2022/08/13 02:25:23;;;;;;;3.50;1.70;;;;;;;18.96;60.02;101079.94;5071487;28;20045;-44
2022/08/13 02:27:55;;;;;;;4.07;1.70;;;;;;;18.94;60.00;101081.53;5071478;28;20079;-47
2022/08/13 02:30:27;;;;;;;4.82;2.08;;;;;;;18.89;60.28;101070.69;5052501;28;20429;-44
2022/08/13 02:32:54;;;;;;;2.78;1.30;;;;;;;18.84;60.37;101083.91;5071757;28;20045;-45
2022/08/13 02:35:23;;;;;;;3.33;1.60;;;;;;;18.80;60.46;101080.28;5071104;28;20524;-43
2022/08/13 02:37:54;;;;;;;3.95;1.73;;;;;;;18.77;60.69;101074.66;5071354;28;20492;-41
2022/08/13 02:43:08;;;;;;;2.65;1.98;;;;;;;18.72;60.84;101063.78;5070990;28;20051;-42
2022/08/13 02:45:36;;;;;;;3.17;1.58;;;;;;;18.70;60.83;101066.19;5070964;28;20078;-43
2022/08/13 02:48:09;;;;;;;3.15;1.70;;;;;;;18.63;61.08;101066.97;5071493;28;20047;-43
2022/08/13 02:50:45;;;;;;;3.20;2.38;;;;;;;18.61;61.06;101057.34;5070929;28;20045;-42
2022/08/13 02:53:19;;;;;;;2.75;1.73;;;;;;;18.61;61.18;101066.53;5065356;28;20153;-44
2022/08/13 02:55:58;;;;;;;4.45;1.95;;;;;;;18.59;61.20;101068.13;5070656;28;20051;-48
2022/08/13 02:58:26;;;;;;;2.53;1.92;;;;;;;18.54;61.39;101058.09;5052839;28;20045;-47
2022/08/13 03:00:54;;;;;;;1.70;1.60;;;;;;;18.50;61.43;101051.69;5148312;22;20028;-42
2022/08/13 03:03:26;;;;;;;4.25;1.65;;;;;;;18.49;61.44;101049.25;5062368;28;20071;-42
2022/08/13 03:05:54;;;;;;;3.25;1.85;;;;;;;18.50;61.59;101051.69;5052649;28;20039;-44
2022/08/13 03:08:28;;;;;;;4.07;2.03;;;;;;;18.48;61.52;101056.06;5053432;28;20040;-42
2022/08/13 03:11:07;;;;;;;3.17;2.27;;;;;;;18.43;61.71;101045.97;5070327;28;20079;-46
2022/08/13 03:13:38;;;;;;;3.95;1.85;;;;;;;18.41;61.85;101042.78;5070785;28;20063;-41
2022/08/13 03:16:16;;;;;;;5.18;1.80;;;;;;;18.37;61.88;101041.94;5070416;28;20041;-42
2022/08/13 03:18:46;;;;;;;4.88;2.00;;;;;;;18.32;62.07;101045.09;5070329;28;20656;-48
2022/08/13 03:21:24;;;;;;;1.98;1.85;;;;;;;18.28;62.09;101049.88;5070284;28;20158;-41
2022/08/13 03:24:12;;;;;;;3.30;2.30;;;;;;;18.25;62.24;101045.06;5070098;28;20063;-44
2022/08/13 03:26:52;;;;;;;3.38;1.67;;;;;;;18.22;62.26;101051.44;5069995;28;20553;-45
2022/08/13 03:29:22;;;;;;;3.20;2.30;;;;;;;18.19;62.32;101041.00;5069764;28;20557;-42
2022/08/13 03:32:09;;;;;;;2.80;2.08;;;;;;;18.14;62.47;101038.56;5070147;28;20156;-44
2022/08/13 03:34:39;;;;;;;3.33;2.35;;;;;;;18.10;62.48;101044.16;5069935;28;20562;-43
2022/08/13 03:37:10;;;;;;;4.10;1.92;;;;;;;18.11;62.37;101033.75;5070240;28;20048;-41
2022/08/13 03:39:37;;;;;;;3.13;2.00;;;;;;;18.11;62.47;101036.53;5073870;28;20045;-43
2022/08/13 03:42:08;;;;;;;5.65;1.90;;;;;;;18.09;62.56;101030.53;5069813;28;20059;-41
2022/08/13 03:44:41;;;;;;;7.65;2.53;;;;;;;18.06;62.67;101026.50;5069687;28;20276;-42
2022/08/13 03:47:09;;;;;;;3.67;1.95;;;;;;;18.01;62.58;101021.28;5069626;28;20513;-48
2022/08/13 03:49:57;;;;;;;3.00;2.00;;;;;;;18.01;62.68;101012.88;5069653;28;20051;-42
2022/08/13 03:52:25;;;;;;;3.50;2.00;;;;;;;18.01;62.65;101021.28;5069459;28;20048;-44
2022/08/13 03:55:06;;;;;;;4.20;2.70;;;;;;;17.96;62.80;101010.44;5046454;28;20037;-43
2022/08/13 03:57:35;;;;;;;3.38;2.55;;;;;;;17.95;62.86;101005.22;5068279;28;20044;-41
2022/08/13 04:00:22;;;;;;;2.63;1.83;;;;;;;17.97;62.78;101005.63;5069494;28;20037;-46
2022/08/13 04:02:52;;;;;;;2.25;1.75;;;;;;;17.99;62.68;101004.06;5069263;28;20052;-44
2022/08/13 04:05:19;;;;;;;4.03;1.73;;;;;;;18.02;62.82;101003.28;5051505;28;20048;-41
2022/08/13 04:08:06;;;;;;;2.88;1.65;;;;;;;18.04;62.85;100991.66;5054815;28;20103;-47
2022/08/13 04:10:40;;;;;;;7.45;1.88;;;;;;;18.07;63.15;101004.91;5068497;28;20131;-49
2022/08/13 04:13:17;;;;;;;3.13;2.40;;;;;;;18.10;63.03;101002.13;5069758;28;20074;-46
2022/08/13 04:16:07;;;;;;;3.85;1.50;;;;;;;18.12;63.13;100998.94;5069178;28;20052;-47
2022/08/13 04:18:36;;;;;;;2.85;2.22;;;;;;;18.13;63.25;100992.16;5069489;28;20055;-43
2022/08/13 04:21:06;;;;;;;5.03;2.58;;;;;;;18.15;63.38;100987.75;5063762;28;20049;-47
2022/08/13 04:23:34;;;;;;;2.05;1.75;;;;;;;18.15;63.53;100998.16;5069284;28;20076;-49
2022/08/13 04:26:03;;;;;;;2.60;1.65;;;;;;;18.18;63.41;100992.59;5069492;28;20052;-42
2022/08/13 04:28:30;;;;;;;8.18;1.85;;;;;;;18.21;63.36;100993.78;5069885;28;20044;-44
2022/08/13 04:31:00;;;;;;;4.50;1.77;;;;;;;18.22;63.29;101001.00;5051277;28;20059;-46
2022/08/13 04:33:28;;;;;;;5.88;2.58;;;;;;;18.23;63.42;101003.41;5069153;28;20040;-42
2022/08/13 04:36:14;;;;;;;4.43;2.35;;;;;;;18.23;63.43;101003.41;5068721;28;20037;-46
2022/08/13 04:38:44;;;;;;;3.78;2.85;;;;;;;18.23;63.46;101008.22;5068968;28;20127;-43
2022/08/13 04:41:10;;;;;;;2.15;1.95;;;;;;;18.25;63.39;101005.81;5068834;28;20048;-48
2022/08/13 04:43:41;;;;;;;4.95;1.88;;;;;;;18.19;63.78;101004.56;5048155;28;20111;-45
2022/08/13 04:46:07;;;;;;;2.55;1.60;;;;;;;18.12;64.19;101001.72;5069340;28;20139;-42
2022/08/13 04:48:35;;;;;;;3.17;1.90;;;;;;;18.06;64.13;100998.50;5068751;28;20086;-42
2022/08/13 04:51:05;;;;;;;3.17;1.48;;;;;;;18.07;64.21;100993.69;5068727;28;20044;-47
2022/08/13 04:53:36;;;;;;;4.30;1.58;;;;;;;18.02;64.38;101002.47;5068803;28;20135;-48
2022/08/13 04:56:16;;;;;;;1.50;1.40;;;;;;;17.99;64.56;100992.84;5068769;28;20060;-43
2022/08/13 04:58:45;;;;;;;2.25;1.83;;;;;;;18.01;64.59;100993.25;5051130;28;20071;-43
2022/08/13 05:01:12;;;;;;;5.25;2.50;;;;;;;18.02;64.71;100992.06;5068481;28;20135;-45
2022/08/13 05:03:59;;;;;;;2.88;2.05;;;;;;;18.03;64.82;100998.47;5069688;28;20049;-45
2022/08/13 05:06:46;;;;;;;2.67;2.05;;;;;;;18.03;64.81;100995.69;5068562;28;20040;-42
2022/08/13 05:09:17;;;;;;;4.97;1.60;;;;;;;18.04;64.92;100994.47;5068345;28;20449;-41
2022/08/13 05:11:44;;;;;;;3.55;2.13;;;;;;;18.04;65.00;101000.06;5068474;28;20486;-46
2022/08/13 05:14:28;;;;;;;4.40;1.90;;;;;;;18.03;65.08;100995.69;5068455;28;20114;-47
2022/08/13 05:16:59;;;;;;;2.40;1.92;;;;;;;18.03;65.02;100988.06;5068695;28;20051;-46
2022/08/13 05:19:27;;;;;;;6.40;2.38;;;;;;;18.06;65.28;100997.69;5068414;28;20052;-42
2022/08/13 05:22:04;;;;;;;3.70;1.65;;;;;;;18.06;65.38;101001.28;5069887;28;20131;-42
2022/08/13 05:24:32;;;;;;;3.85;2.03;;;;;;;18.09;65.31;101006.13;5072439;28;20053;-43
2022/08/13 05:27:19;;;;;;;2.17;2.03;;;;;;;18.14;65.16;100999.34;5072523;28;20048;-44
2022/08/13 05:29:48;;;;;;;3.28;2.28;;;;;;;18.15;65.39;100995.34;5072563;28;20043;-44
2022/08/13 05:32:38;;;;;;;3.47;2.30;;;;;;;18.17;65.37;100998.56;5072090;28;20052;-46
2022/08/13 05:35:12;;;;;;;2.22;2.03;;;;;;;18.20;65.48;101007.00;5059397;28;20580;-43
2022/08/13 05:37:40;;;;;;;3.25;2.35;;;;;;;18.23;65.80;100991.41;5072767;28;20045;-43
2022/08/13 05:40:27;;;;;;;4.82;2.10;;;;;;;18.26;65.74;100990.63;5072137;28;20075;-42
2022/08/13 05:43:09;;;;;;;3.25;2.33;;;;;;;18.34;66.04;100994.28;5071987;28;20161;-42
2022/08/13 05:45:36;;;;;;;2.85;2.03;;;;;;;18.39;66.02;100986.28;5072394;28;20127;-44
2022/08/13 05:48:18;;;;;;;;;;;;;;;18.42;65.86;100988.31;5072854;28;20048;-45
2022/08/13 05:50:54;;;;;;;8.60;2.58;;;;;;;18.46;65.75;100993.91;5072052;28;19982;-42
2022/08/13 05:53:22;;;;;;;4.57;2.58;;;;;;;18.49;66.16;100996.78;5068823;28;20155;-41
2022/08/13 05:55:53;;;;;;;5.82;2.17;;;;;;;18.57;66.04;100995.63;5072004;28;20195;-42
2022/08/13 05:58:40;;;;;;;3.05;2.40;;;;;;;18.63;66.02;100982.84;5057203;28;20036;-42
2022/08/13 06:03:55;;;;;;;6.70;2.20;;;;;;;18.73;66.26;100987.69;5071563;28;20060;-43
2022/08/13 06:06:42;;;;;;;5.47;2.20;;;;;;;18.81;66.52;100986.50;5071671;28;20056;-41
2022/08/13 06:09:14;;;;;;;6.45;2.30;;;;;;;18.87;66.54;100991.75;5071521;28;20049;-44
2022/08/13 06:11:49;;;;;;;5.07;2.00;;;;;;;18.94;66.58;100986.16;5072074;28;20051;-42
2022/08/13 06:14:36;;;;;;;4.97;2.60;;;;;;;19.04;66.46;100990.97;5071786;28;20040;-43
2022/08/13 06:17:06;;;;;;;5.15;2.70;;;;;;;19.11;66.57;100988.22;5071327;28;20041;-44
2022/08/13 06:19:43;;;;;;;9.32;2.90;;;;;;;19.18;66.56;100997.44;5071076;28;20048;-42
2022/08/13 06:22:19;;;;;;;5.30;2.15;;;;;;;19.22;66.64;100995.44;5071050;28;20044;-43
2022/08/13 06:24:47;;;;;;;4.60;2.75;;;;;;;19.25;66.75;100993.84;5070990;28;20523;-42
2022/08/13 06:27:24;;;;;;;4.75;2.55;;;;;;;19.28;66.88;100991.03;5071620;28;20059;-43
2022/08/13 06:30:18;;;;;;;5.23;2.43;;;;;;;19.35;66.70;100985.44;5071134;28;20040;-45
2022/08/13 06:33:02;;;;;;;3.97;2.50;;;;;;;19.42;66.75;100993.13;5070990;28;20037;-43
2022/08/13 06:35:50;;;;;;;8.02;3.00;;;;;;;19.47;66.69;100989.91;5070947;28;20037;-49
2022/08/13 06:38:30;;;;;;;11.23;2.85;;;;;;;19.53;66.82;100985.50;5070887;28;20040;-41
2022/08/13 06:41:02;;;;;;;4.32;2.65;;;;;;;19.58;66.61;100981.50;5071094;28;20072;-44
2022/08/13 06:43:35;;;;;;;4.30;2.42;;;;;;;19.65;66.94;100982.28;5071115;28;20127;-47
2022/08/13 06:46:24;;;;;;;7.57;3.05;;;;;;;19.73;66.77;100977.47;5071255;28;20045;-43
2022/08/13 06:48:58;;;;;;;4.68;2.78;;;;;;;19.81;66.47;100968.63;5070919;28;20059;-41
2022/08/13 06:51:31;;;;;;;5.88;3.15;;;;;;;19.89;66.65;100963.81;5070957;28;20094;-44
2022/08/13 06:54:08;;;;;;;6.25;2.90;;;;;;;19.92;66.49;100966.63;5070865;28;20457;-43
2022/08/13 06:56:54;;;;;;;4.95;2.58;;;;;;;20.02;66.37;100979.06;5070815;28;20084;-43
2022/08/13 06:59:39;;;;;;;7.75;2.67;;;;;;;20.08;66.14;100977.44;5070772;28;20036;-43
2022/08/13 07:02:28;;;;;;;6.95;2.58;;;;;;;20.16;66.27;100975.41;5070768;28;20533;-41
2022/08/13 07:04:58;;;;;;;5.32;2.60;;;;;;;20.25;66.37;100981.47;5070692;28;20052;-42
2022/08/13 07:07:27;;;;;;;3.90;3.08;;;;;;;20.29;66.03;100980.25;5070324;28;20135;-47
2022/08/13 07:09:54;;;;;;;6.50;3.72;;;;;;;20.23;65.92;100976.19;5070901;28;20143;-45
2022/08/13 07:12:24;;;;;;;6.57;2.70;;;;;;;20.19;66.13;100975.41;5070954;28;20044;-42
2022/08/13 07:14:51;;;;;;;7.57;2.53;;;;;;;20.21;66.34;100975.81;5070502;28;20041;-40
2022/08/13 07:17:28;;;;;;;6.50;3.08;;;;;;;20.29;66.22;100979.44;5070376;28;20514;-49
2022/08/13 07:20:04;;;;;;;6.30;2.92;;;;;;;20.37;65.93;100979.03;5075648;28;20520;-44
2022/08/13 07:22:49;;;;;;;3.45;2.60;;;;;;;20.53;65.51;100989.81;5066832;28;20102;-47
2022/08/13 07:25:39;;;;;;;7.65;2.58;;;;;;;20.71;65.71;100984.91;5070133;28;20048;-45
2022/08/13 07:28:29;;;;;;;14.48;3.58;;;;;;;20.86;65.17;100988.50;5071049;28;20053;-46
2022/08/13 07:31:19;;;;;;;9.60;3.08;;;;;;;20.98;64.77;100990.84;5070384;28;20051;-43
2022/08/13 07:33:51;;;;;;;4.13;2.58;;;;;;;21.08;64.56;100990.81;5070382;28;20048;-46
2022/08/13 07:36:29;;;;;;;5.78;2.60;;;;;;;21.20;64.39;100979.09;5070821;28;20190;-43
2022/08/13 07:38:58;;;;;;;5.80;2.33;;;;;;;21.29;63.94;100977.81;5070413;28;20490;-45
2022/08/13 07:41:27;;;;;;;8.88;3.55;;;;;;;21.33;63.93;100985.03;5069882;28;20036;-40
2022/08/13 07:43:58;;;;;;;9.93;2.75;;;;;;;21.35;63.93;100990.25;5069360;28;20580;-41
2022/08/13 07:46:35;;;;;;;4.53;3.38;;;;;;;21.33;63.89;100989.84;5069797;28;20040;-43
2022/08/13 07:49:08;;;;;;;5.07;2.88;;;;;;;21.34;63.84;100986.63;5069682;28;20044;-42
2022/08/13 07:51:37;;;;;;;7.60;3.25;;;;;;;21.39;63.79;100980.56;5069760;28;20494;-40
2022/08/13 07:54:06;;;;;;;5.35;2.40;;;;;;;21.43;63.37;100974.88;5070547;28;20464;-46
2022/08/13 07:56:35;;;;;;;4.85;2.55;;;;;;;21.46;63.41;100976.88;5069769;28;20114;-41
2022/08/13 07:59:15;;;;;;;8.23;2.85;;;;;;;21.51;63.86;100988.50;5069329;28;20088;-43
2022/08/13 08:01:55;;;;;;;5.57;2.70;;;;;;;21.58;64.00;100984.81;5069286;28;20486;-42
2022/08/13 08:04:43;;;;;;;8.10;3.03;;;;;;;21.61;63.93;100978.38;5054947;28;20481;-40
2022/08/13 08:07:21;;;;;;;8.48;3.08;;;;;;;21.70;64.34;100987.16;5055770;28;20037;-41
2022/08/13 08:09:52;;;;;;;7.75;3.00;;;;;;;21.78;64.28;100988.72;5070073;28;20453;-43
2022/08/13 08:12:32;;;;;;;5.15;2.45;;;;;;;21.91;64.54;100970.09;5069086;28;20080;-43
2022/08/13 08:15:00;;;;;;;8.88;3.28;;;;;;;22.05;64.37;100980.44;5069171;28;20536;-43
2022/08/13 08:17:31;;;;;;;8.73;2.60;;;;;;;22.21;64.25;100973.00;5068679;28;20048;-44
2022/08/13 08:20:21;;;;;;;8.82;3.08;;;;;;;22.47;63.88;100976.38;5069057;28;20037;-44
2022/08/13 08:23:05;;;;;;;6.68;2.53;;;;;;;22.79;63.35;100974.00;5069121;28;20065;-47
2022/08/13 08:25:37;;;;;;;6.32;2.72;;;;;;;23.23;62.37;100976.59;5068866;28;20109;-45
2022/08/13 08:28:18;;;;;;;9.05;3.65;;;;;;;23.70;60.82;100980.31;5069597;28;20072;-41
2022/08/13 08:31:06;;;;;;;8.05;3.17;;;;;;;24.17;59.06;100967.78;5068898;28;20486;-41
2022/08/13 08:33:55;;;;;;;7.60;3.23;;;;;;;24.80;57.52;100971.41;5069008;28;20048;-45
2022/08/13 08:36:26;;;;;;;7.75;4.00;;;;;;;25.40;55.70;100975.72;5068755;28;20282;-46
2022/08/13 08:44:55;;;;;;;6.60;3.13;;;;;;;26.96;51.14;100968.72;5069184;28;20486;-44
2022/08/13 08:47:31;;;;;;;9.00;2.47;;;;;;;27.21;49.67;100974.47;5068791;28;20041;-41
2022/08/13 08:50:16;;;;;;;7.10;2.97;;;;;;;27.13;49.59;100975.94;5068956;28;20108;-46
2022/08/13 08:56:05;;;;;;;7.40;2.20;;;;;;;27.11;48.68;100973.53;5068634;28;20068;-42
2022/08/13 08:58:40;;;;;;;7.45;2.33;;;;;;;27.57;48.28;100965.59;5069112;28;20044;-44
2022/08/13 09:01:10;;;;;;;10.15;2.70;;;;;;;28.06;46.93;100975.34;5069124;28;20151;-41
2022/08/13 09:03:42;;;;;;;6.25;2.70;;;;;;;28.44;45.77;100977.22;5068763;28;20123;-41
2022/08/13 09:06:18;;;;;;;8.13;2.67;;;;;;;28.85;44.84;100979.78;5068753;28;20169;-42
2022/08/13 09:09:08;;;;;;;6.50;2.35;;;;;;;29.13;44.42;100972.19;5068280;28;20064;-45
2022/08/13 09:11:42;;;;;;;11.20;2.92;;;;;;;29.34;44.05;100983.56;5068592;28;20045;-46
2022/08/13 09:14:20;;;;;;;6.45;2.80;;;;;;;29.64;43.36;100978.28;5068399;28;20056;-43
2022/08/13 09:16:49;;;;;;;7.40;3.83;;;;;;;29.91;42.66;100981.25;5068478;28;20044;-42
2022/08/13 09:19:17;;;;;;;4.70;2.65;;;;;;;30.14;42.08;100974.94;5068911;28;20486;-42
2022/08/13 09:22:05;;;;;;;6.40;2.45;;;;;;;30.42;41.17;100967.97;5068556;28;20045;-41
2022/08/13 09:24:32;;;;;;;8.23;3.17;;;;;;;30.55;40.52;100976.41;5068223;28;20131;-43
2022/08/13 09:26:59;;;;;;;8.20;3.67;;;;;;;30.68;40.03;100977.84;5068116;28;20045;-44
2022/08/13 09:29:26;;;;;;;12.60;3.97;;;;;;;30.69;39.92;100979.41;5068339;28;20059;-44
2022/08/13 09:31:58;;;;;;;7.07;2.30;;;;;;;30.86;39.56;100970.47;5068508;28;20045;-44
2022/08/13 09:34:28;;;;;;;6.32;3.00;;;;;;;31.11;39.07;100970.13;5068573;28;20482;-42
2022/08/13 09:36:56;;;;;;;6.13;2.30;;;;;;;31.25;39.08;100969.44;5068178;28;20128;-45
2022/08/13 09:39:33;;;;;;;7.88;2.70;;;;;;;31.38;38.69;100967.16;5068370;28;20532;-43
2022/08/13 09:42:16;;;;;;;8.20;2.78;;;;;;;31.61;38.18;100963.59;5068008;28;20363;-41
2022/08/13 09:44:56;;;;;;;8.95;2.85;;;;;;;31.41;38.17;100960.47;5068250;28;20045;-44
2022/08/13 09:47:24;;;;;;;4.32;2.40;;;;;;;31.11;38.27;100959.47;5067780;28;20045;-44
2022/08/13 09:50:10;;;;;;;6.85;2.15;;;;;;;30.97;38.41;100968.75;5068241;28;20143;-48
2022/08/13 09:52:37;;;;;;;5.57;2.45;;;;;;;30.97;38.18;100960.16;5060846;28;20037;-42
2022/08/13 09:55:05;;;;;;;4.63;2.45;;;;;;;31.03;38.25;100963.94;5067937;28;20127;-43
2022/08/13 09:57:50;;;;;;;10.02;2.58;;;;;;;31.17;38.20;100957.53;5067937;28;20147;-41
2022/08/13 10:00:24;;;;;;;4.97;2.50;;;;;;;31.26;38.02;100953.88;5067896;28;20445;-44
2022/08/13 10:02:56;;;;;;;8.70;2.90;;;;;;;31.18;37.82;100952.63;5067775;28;20049;-42
2022/08/13 10:05:27;;;;;;;5.15;2.53;;;;;;;31.30;37.60;100955.28;5067897;28;20048;-41
2022/08/13 10:08:06;;;;;;;6.25;2.67;;;;;;;31.47;37.38;100961.44;5069158;28;20490;-44
2022/08/13 10:10:33;;;;;;;9.02;3.10;;;;;;;31.59;36.86;100954.69;5072381;28;20394;-41
2022/08/13 10:13:02;;;;;;;6.43;2.53;;;;;;;31.41;37.32;100956.81;5071810;28;20147;-43
2022/08/13 10:15:29;;;;;;;6.43;2.65;;;;;;;31.33;37.09;100953.50;5066488;28;20098;-42
2022/08/13 10:18:02;;;;;;;7.60;2.50;;;;;;;31.16;37.33;100949.47;5070461;28;20076;-41
2022/08/13 10:20:38;;;;;;;6.30;2.67;;;;;;;31.03;37.48;100960.31;5071198;28;20097;-41
2022/08/13 10:23:08;;;;;;;6.45;2.90;;;;;;;30.82;37.45;100949.84;5071420;28;20106;-43
2022/08/13 10:25:37;;;;;;;4.22;1.95;;;;;;;30.74;38.03;100944.44;5071711;28;20539;-41
2022/08/13 10:28:17;;;;;;;9.60;2.72;;;;;;;30.75;38.12;100953.81;5071708;28;20044;-47
2022/08/13 10:30:59;;;;;;;3.70;2.30;;;;;;;30.56;38.22;100955.91;5071631;28;20040;-49
2022/08/13 10:33:47;;;;;;;2.95;2.45;;;;;;;30.26;38.62;100950.34;5061470;28;20574;-49
2022/08/13 10:36:16;;;;;;;4.13;2.17;;;;;;;30.21;38.79;100943.19;5071617;28;20067;-41
2022/08/13 10:38:43;;;;;;;3.90;2.33;;;;;;;30.09;39.17;100941.31;5071640;28;20502;-43
2022/08/13 10:41:20;;;;;;;6.40;2.55;;;;;;;29.94;39.09;100940.34;5071290;28;20037;-44
2022/08/13 10:43:48;;;;;;;8.80;2.83;;;;;;;29.81;39.31;100936.84;5071831;28;20052;-42
2022/08/13 10:46:26;;;;;;;3.92;2.17;;;;;;;29.58;39.43;100935.31;5071553;28;20055;-46
2022/08/13 10:48:55;;;;;;;10.05;2.38;;;;;;;29.30;40.31;100937.28;5071304;28;20040;-48
2022/08/13 10:51:29;;;;;;;10.27;2.70;;;;;;;29.05;40.77;100940.31;5070873;28;20560;-42
2022/08/13 10:54:02;;;;;;;5.03;2.25;;;;;;;28.74;41.23;100942.34;5070897;28;20297;-43
2022/08/13 10:56:31;;;;;;;6.22;2.60;;;;;;;28.27;41.69;100934.72;5070744;28;20094;-41
2022/08/13 10:59:00;;;;;;;7.45;2.80;;;;;;;28.00;42.23;100936.50;5070800;28;20057;-46
2022/08/13 11:01:29;;;;;;;4.90;2.63;;;;;;;27.69;43.39;100927.81;5071290;28;20159;-43
2022/08/13 11:04:00;;;;;;;3.75;2.20;;;;;;;27.50;44.06;100923.97;5070778;28;20059;-41
2022/08/13 11:06:33;;;;;;;4.90;2.38;;;;;;;27.29;44.46;100926.69;5070673;28;20044;-41
2022/08/13 11:09:04;;;;;;;11.55;3.45;;;;;;;26.95;44.95;100935.91;5070713;28;20106;-46
2022/08/13 11:11:55;;;;;;;9.65;2.95;;;;;;;26.65;45.78;100925.81;5071008;28;20098;-41
2022/08/13 11:14:29;;;;;;;11.10;3.00;;;;;;;26.39;46.24;100921.31;5070771;28;20346;-45
2022/08/13 11:17:09;;;;;;;10.23;2.00;;;;;;;26.30;46.97;100924.00;5071281;28;20041;-41
2022/08/13 11:19:56;;;;;;;6.03;2.58;;;;;;;26.32;46.71;100921.50;5070226;28;20060;-43
2022/08/13 11:22:30;;;;;;;9.15;2.63;;;;;;;26.32;46.72;100924.34;5070037;28;20048;-44
2022/08/13 11:24:59;;;;;;;8.02;3.03;;;;;;;26.29;46.57;100917.50;5070002;28;20048;-47
2022/08/13 11:27:47;;;;;;;7.60;2.50;;;;;;;26.20;46.93;100920.22;5069892;28;20051;-41
2022/08/13 11:30:19;;;;;;;5.53;2.72;;;;;;;26.13;47.39;100925.31;5070013;28;20462;-41
2022/08/13 11:33:01;;;;;;;7.30;2.35;;;;;;;26.10;47.46;100926.97;5069949;28;20036;-46
2022/08/13 11:35:32;;;;;;;6.03;2.42;;;;;;;26.09;48.10;100924.56;5070819;28;20482;-45
2022/08/13 11:38:10;;;;;;;5.65;2.25;;;;;;;26.00;48.43;100926.00;5069985;28;20565;-42
2022/08/13 11:40:38;;;;;;;5.57;2.92;;;;;;;26.00;48.29;100913.84;5051911;28;20393;-41
2022/08/13 11:43:06;;;;;;;6.72;2.47;;;;;;;25.96;48.64;100922.47;5070074;28;20059;-45
2022/08/13 11:45:44;;;;;;;5.80;2.30;;;;;;;25.92;48.47;100920.97;5069762;28;20072;-42
2022/08/13 11:48:14;;;;;;;9.55;2.80;;;;;;;25.80;48.61;100925.31;5069681;28;20045;-46
2022/08/13 11:50:56;;;;;;;8.98;2.65;;;;;;;25.68;48.52;100909.00;5075708;28;20051;-41
2022/08/13 11:53:25;;;;;;;8.27;2.80;;;;;;;25.74;48.74;100907.25;5067794;28;20497;-41
2022/08/13 11:55:55;;;;;;;5.53;2.33;;;;;;;25.85;48.66;100910.59;5068940;28;20369;-44
2022/08/13 11:58:32;;;;;;;10.85;3.30;;;;;;;25.98;48.56;100914.28;5069607;28;20056;-42
2022/08/13 12:01:19;;;;;;;4.85;3.03;;;;;;;25.98;48.64;100908.63;5069351;28;20052;-43
2022/08/13 12:03:53;;;;;;;7.97;3.00;;;;;;;26.06;48.48;100902.75;5069420;28;20037;-42
2022/08/13 12:06:41;;;;;;;7.03;2.90;;;;;;;26.14;48.22;100899.28;5069038;28;20051;-43
2022/08/13 12:09:14;;;;;;;9.18;2.88;;;;;;;26.06;48.50;100906.38;5083625;28;20250;-42
2022/08/13 12:12:01;;;;;;;4.63;2.78;;;;;;;25.98;48.13;100897.28;5069198;28;20398;-41
2022/08/13 12:14:38;;;;;;;13.35;3.33;;;;;;;25.91;48.90;100903.16;5069215;28;20116;-43
2022/08/13 12:17:05;;;;;;;8.27;2.97;;;;;;;25.88;48.63;100906.88;5062637;28;20048;-46
2022/08/13 12:19:34;;;;;;;9.32;2.75;;;;;;;25.83;48.93;100907.41;5051216;28;20044;-41
2022/08/13 12:22:02;;;;;;;6.75;3.25;;;;;;;25.89;48.76;100905.63;5069064;28;20044;-42
2022/08/13 12:24:28;;;;;;;7.40;2.97;;;;;;;25.97;48.95;100907.03;5070832;28;20178;-41